Time;durP1;ratioP1;P1;durP2;ratioP2;P2;SDS_P1;SDS_P2;PMS_P1;PMS_P2;Temp;Humidity;BMP_temperature;BMP_pressure;BME280_temperature;BME280_humidity;BME280_pressure;Samples;Min_cycle;Max_cycle;Signal;HPM_P1;HPM_P2
2023/09/22 00:01:29;;;;;;;24.50;3.95;;;;;;;;;;5101615;28;20128;-43
2023/09/22 00:03:56;;;;;;;19.67;4.18;;;;;;;;;;5099598;28;20028;-44
2023/09/22 00:06:23;;;;;;;26.75;4.18;;;;;;;;;;5102481;28;20200;-41
2023/09/22 00:08:50;;;;;;;21.30;4.15;;;;;;;;;;5099925;28;20031;-40
2023/09/22 00:11:17;;;;;;;23.50;4.13;;;;;;;;;;5102818;28;20024;-37
2023/09/22 00:13:45;;;;;;;27.70;4.68;;;;;;;;;;5102117;28;20041;-39
2023/09/22 00:16:12;;;;;;;26.10;4.43;;;;;;;;;;5105223;27;20038;-39
2023/09/22 00:18:39;;;;;;;21.20;4.30;;;;;;;;;;5106115;28;20099;-38
2023/09/22 00:21:08;;;;;;;27.23;4.72;;;;;;;;;;5104331;28;20115;-40
2023/09/22 00:23:35;;;;;;;21.38;4.30;;;;;;;;;;5105218;28;20068;-39
2023/09/22 00:26:02;;;;;;;24.90;4.22;;;;;;;;;;5101520;28;20032;-38
2023/09/22 00:28:29;;;;;;;21.05;3.65;;;;;;;;;;5114070;28;20035;-38
2023/09/22 00:30:56;;;;;;;21.92;3.67;;;;;;;;;;5108368;28;20024;-40
2023/09/22 00:33:23;;;;;;;31.70;4.43;;;;;;;;;;5112935;27;20060;-39
2023/09/22 00:35:51;;;;;;;28.63;4.10;;;;;;;;;;5108307;28;20035;-40
2023/09/22 00:38:18;;;;;;;23.33;4.15;;;;;;;;;;5114927;27;20035;-40
2023/09/22 00:40:45;;;;;;;25.60;3.75;;;;;;;;;;5114732;28;20035;-38
2023/09/22 00:43:13;;;;;;;28.77;4.20;;;;;;;;;;5108358;27;20034;-38
2023/09/22 00:45:44;;;;;;;24.48;4.22;;;;;;;;;;5107979;28;20023;-38
2023/09/22 00:48:18;;;;;;;24.88;4.90;;;;;;;;;;5110446;28;20055;-40
2023/09/22 00:50:46;;;;;;;21.05;4.75;;;;;;;;;;5114685;28;20031;-40
2023/09/22 00:53:13;;;;;;;25.42;4.40;;;;;;;;;;5113427;27;20031;-40
2023/09/22 00:55:40;;;;;;;26.90;5.50;;;;;;;;;;5112943;28;20024;-40
2023/09/22 00:58:07;;;;;;;27.98;6.53;;;;;;;;;;5110519;28;20020;-40
2023/09/22 01:00:35;;;;;;;30.00;6.60;;;;;;;;;;5104761;28;20119;-43
2023/09/22 01:03:02;;;;;;;53.92;10.45;;;;;;;;;;5107450;27;20470;-42
2023/09/22 01:05:32;;;;;;;65.57;14.07;;;;;;;;;;5110161;28;20036;-40
2023/09/22 01:08:00;;;;;;;75.47;18.08;;;;;;;;;;5114191;28;20031;-38
2023/09/22 01:10:36;;;;;;;69.20;19.25;;;;;;;;;;5113524;28;20496;-42
2023/09/22 01:13:04;;;;;;;75.45;20.42;;;;;;;;;;5099471;28;20023;-38
2023/09/22 01:15:35;;;;;;;76.53;18.75;;;;;;;;;;5114040;28;20829;-38
2023/09/22 01:18:02;;;;;;;77.30;19.23;;;;;;;;;;5114187;28;20031;-38
2023/09/22 01:20:29;;;;;;;85.38;20.13;;;;;;;;;;5114088;28;20027;-41
2023/09/22 01:22:56;;;;;;;74.43;16.23;;;;;;;;;;5102494;28;20027;-39
2023/09/22 01:25:23;;;;;;;69.22;18.60;;;;;;;;;;5112617;28;20725;-39
2023/09/22 01:27:50;;;;;;;60.38;16.90;;;;;;;;;;5114136;28;20028;-40
2023/09/22 01:30:17;;;;;;;56.80;15.27;;;;;;;;;;5109143;28;20032;-38
2023/09/22 01:32:44;;;;;;;54.13;14.50;;;;;;;;;;5113903;28;20023;-39
2023/09/22 01:35:11;;;;;;;65.10;16.40;;;;;;;;;;5113839;28;20043;-39
2023/09/22 01:37:41;;;;;;;57.00;14.10;;;;;;;;;;5113825;28;20074;-38
2023/09/22 01:40:08;;;;;;;47.95;13.30;;;;;;;;;;5113828;28;20482;-39
2023/09/22 01:42:35;;;;;;;61.10;14.77;;;;;;;;;;5107067;28;20024;-38
2023/09/22 01:45:02;;;;;;;40.95;11.68;;;;;;;;;;5110253;28;20138;-39
2023/09/22 01:47:29;;;;;;;54.40;12.85;;;;;;;;;;5096884;28;20036;-38
2023/09/22 01:49:57;;;;;;;47.78;11.95;;;;;;;;;;5096072;28;20424;-40
2023/09/22 01:52:24;;;;;;;47.40;11.90;;;;;;;;;;5097225;28;20395;-39
2023/09/22 01:54:51;;;;;;;49.20;13.27;;;;;;;;;;5096968;28;20032;-39
2023/09/22 01:57:19;;;;;;;45.10;11.55;;;;;;;;;;5093964;28;20028;-39
2023/09/22 01:59:47;;;;;;;45.83;12.35;;;;;;;;;;5099038;28;20043;-40
2023/09/22 02:02:15;;;;;;;57.38;12.07;;;;;;;;;;5108653;28;20027;-38
2023/09/22 02:04:42;;;;;;;48.78;11.50;;;;;;;;;;5108788;28;20050;-38
2023/09/22 02:07:10;;;;;;;42.30;11.77;;;;;;;;;;5109462;28;20426;-39
2023/09/22 02:09:37;;;;;;;48.70;12.40;;;;;;;;;;5108983;28;20105;-39
2023/09/22 02:12:04;;;;;;;41.45;10.70;;;;;;;;;;5108644;28;20019;-38
2023/09/22 02:14:32;;;;;;;44.90;10.35;;;;;;;;;;5108020;28;20073;-38
2023/09/22 02:16:59;;;;;;;45.00;10.48;;;;;;;;;;5106192;28;20034;-39
2023/09/22 02:19:26;;;;;;;50.95;10.20;;;;;;;;;;5110098;28;20031;-38
2023/09/22 02:21:53;;;;;;;45.47;10.10;;;;;;;;;;5106635;27;20036;-39
2023/09/22 02:24:20;;;;;;;43.15;9.77;;;;;;;;;;5109103;28;20067;-39
2023/09/22 02:26:47;;;;;;;50.55;9.98;;;;;;;;;;5094665;28;20482;-39
2023/09/22 02:29:14;;;;;;;36.60;10.23;;;;;;;;;;5097579;28;20024;-39
2023/09/22 02:31:42;;;;;;;37.90;10.30;;;;;;;;;;5094894;28;20062;-37
2023/09/22 02:34:09;;;;;;;37.47;9.25;;;;;;;;;;5097802;28;20031;-39
2023/09/22 02:36:36;;;;;;;34.13;8.73;;;;;;;;;;5108051;28;20099;-38
2023/09/22 02:39:03;;;;;;;45.20;9.32;;;;;;;;;;5107925;28;20373;-38
2023/09/22 02:41:31;;;;;;;31.67;7.85;;;;;;;;;;5102651;28;20028;-39
2023/09/22 02:43:59;;;;;;;41.40;7.88;;;;;;;;;;5098238;28;20702;-38
2023/09/22 02:46:26;;;;;;;31.80;7.97;;;;;;;;;;5097301;28;20132;-39
2023/09/22 02:48:53;;;;;;;31.77;7.35;;;;;;;;;;5101028;28;20028;-38
2023/09/22 02:51:20;;;;;;;28.60;7.32;;;;;;;;;;5102139;28;20023;-37
2023/09/22 02:53:50;;;;;;;30.13;8.02;;;;;;;;;;5102697;28;20020;-38
2023/09/22 02:56:18;;;;;;;37.22;7.82;;;;;;;;;;5107195;28;20092;-37
2023/09/22 02:58:45;;;;;;;26.00;7.55;;;;;;;;;;5112751;28;20026;-37
2023/09/22 03:01:14;;;;;;;30.30;8.10;;;;;;;;;;5112554;28;20035;-37
2023/09/22 03:03:42;;;;;;;27.13;7.15;;;;;;;;;;5112629;28;20031;-37
2023/09/22 03:06:13;;;;;;;28.70;7.60;;;;;;;;;;5112414;28;20027;-37
2023/09/22 03:08:40;;;;;;;25.85;7.50;;;;;;;;;;5112539;28;20023;-37
2023/09/22 03:11:07;;;;;;;25.15;6.78;;;;;;;;;;5112525;28;20084;-37
2023/09/22 03:13:34;;;;;;;21.98;6.05;;;;;;;;;;5112442;28;20027;-37
2023/09/22 03:16:01;;;;;;;23.55;6.20;;;;;;;;;;5112355;28;20489;-37
2023/09/22 03:18:28;;;;;;;22.63;6.05;;;;;;;;;;5111022;28;20027;-37
2023/09/22 03:20:55;;;;;;;18.85;6.07;;;;;;;;;;5112367;28;20106;-37
2023/09/22 03:23:23;;;;;;;23.25;5.80;;;;;;;;;;5112022;28;20124;-38
2023/09/22 03:25:51;;;;;;;20.88;5.63;;;;;;;;;;5112322;28;20512;-38
2023/09/22 03:28:19;;;;;;;22.80;6.07;;;;;;;;;;5112234;28;20484;-37
2023/09/22 03:30:46;;;;;;;17.70;4.80;;;;;;;;;;5112130;28;20482;-37
2023/09/22 03:33:13;;;;;;;23.73;5.68;;;;;;;;;;5112195;28;20024;-37
2023/09/22 03:35:40;;;;;;;16.67;5.30;;;;;;;;;;5111885;28;20490;-37
2023/09/22 03:38:09;;;;;;;21.70;5.68;;;;;;;;;;5111905;28;20058;-38
2023/09/22 03:40:41;;;;;;;17.77;5.50;;;;;;;;;;5112036;28;20389;-38
2023/09/22 03:43:11;;;;;;;15.23;4.65;;;;;;;;;;5111954;28;20160;-37
2023/09/22 03:45:38;;;;;;;20.25;5.15;;;;;;;;;;5111666;28;20490;-38
2023/09/22 03:48:05;;;;;;;14.50;5.03;;;;;;;;;;5111523;28;20020;-38
2023/09/22 03:50:32;;;;;;;19.35;5.10;;;;;;;;;;5111906;28;20563;-37
2023/09/22 03:52:59;;;;;;;18.98;4.90;;;;;;;;;;5111956;28;20063;-37
2023/09/22 03:55:26;;;;;;;14.02;4.45;;;;;;;;;;5111997;28;20043;-37
2023/09/22 03:57:53;;;;;;;19.85;5.05;;;;;;;;;;5112050;28;20150;-37
2023/09/22 04:00:27;;;;;;;14.18;4.43;;;;;;;;;;5110553;28;20386;-37
2023/09/22 04:02:54;;;;;;;13.90;4.50;;;;;;;;;;5111878;28;20442;-37
2023/09/22 04:05:21;;;;;;;13.45;4.32;;;;;;;;;;5111723;28;20055;-37
2023/09/22 04:07:48;;;;;;;15.57;4.10;;;;;;;;;;5111889;28;20027;-37
2023/09/22 04:10:16;;;;;;;14.85;4.97;;;;;;;;;;5111818;28;20027;-37
2023/09/22 04:12:43;;;;;;;15.27;3.97;;;;;;;;;;5110405;28;20444;-37
2023/09/22 04:15:11;;;;;;;14.02;4.25;;;;;;;;;;5111801;28;20029;-38
2023/09/22 04:17:38;;;;;;;14.77;4.35;;;;;;;;;;5111814;28;20020;-37
2023/09/22 04:20:09;;;;;;;16.52;5.25;;;;;;;;;;5111781;28;20031;-37
2023/09/22 04:22:37;;;;;;;12.57;4.13;;;;;;;;;;5111642;28;20032;-38
2023/09/22 04:25:11;;;;;;;11.07;3.92;;;;;;;;;;5111310;28;20047;-37
2023/09/22 04:27:46;;;;;;;12.90;4.35;;;;;;;;;;5111657;28;20039;-37
2023/09/22 04:30:16;;;;;;;14.30;4.13;;;;;;;;;;5111602;28;20031;-37
2023/09/22 04:32:44;;;;;;;11.50;3.75;;;;;;;;;;5111444;28;20054;-37
2023/09/22 04:35:11;;;;;;;12.32;3.72;;;;;;;;;;5111409;28;20046;-37
2023/09/22 04:37:40;;;;;;;11.38;3.45;;;;;;;;;;5111605;28;20020;-37
2023/09/22 04:40:22;;;;;;;13.40;4.47;;;;;;;;;;5111435;28;20039;-37
2023/09/22 04:42:53;;;;;;;11.60;3.25;;;;;;;;;;5110100;28;20084;-37
2023/09/22 04:45:21;;;;;;;14.80;4.05;;;;;;;;;;5111222;28;20079;-37
2023/09/22 04:47:51;;;;;;;11.73;3.45;;;;;;;;;;5111633;28;20039;-37
2023/09/22 04:50:19;;;;;;;10.10;3.15;;;;;;;;;;5111579;28;20064;-37
2023/09/22 04:52:47;;;;;;;9.85;3.30;;;;;;;;;;5111428;28;20638;-37
2023/09/22 04:55:16;;;;;;;10.38;3.28;;;;;;;;;;5111305;28;20040;-37
2023/09/22 04:57:44;;;;;;;12.07;3.60;;;;;;;;;;5111511;28;20020;-37
2023/09/22 05:00:22;;;;;;;11.13;3.58;;;;;;;;;;5111660;28;20084;-37
2023/09/22 05:02:49;;;;;;;11.45;3.17;;;;;;;;;;5115098;28;20024;-38
2023/09/22 05:05:18;;;;;;;10.38;3.22;;;;;;;;;;5114775;28;20539;-37
2023/09/22 05:07:46;;;;;;;9.15;3.00;;;;;;;;;;5114842;28;20109;-37
2023/09/22 05:10:13;;;;;;;9.80;3.05;;;;;;;;;;5114995;27;20028;-37
2023/09/22 05:12:40;;;;;;;8.05;2.65;;;;;;;;;;5114700;28;20030;-37
2023/09/22 05:15:07;;;;;;;9.13;2.70;;;;;;;;;;5114716;28;20030;-38
2023/09/22 05:17:34;;;;;;;11.13;3.90;;;;;;;;;;5114862;28;20481;-37
2023/09/22 05:20:04;;;;;;;7.30;2.72;;;;;;;;;;5114708;28;20028;-37
2023/09/22 05:22:31;;;;;;;8.88;2.92;;;;;;;;;;5114718;28;20077;-38
2023/09/22 05:24:58;;;;;;;9.50;2.67;;;;;;;;;;5114322;28;20044;-37
2023/09/22 05:27:25;;;;;;;7.88;2.55;;;;;;;;;;5114686;28;20389;-37
2023/09/22 05:29:55;;;;;;;7.18;2.58;;;;;;;;;;5114665;28;20039;-37
2023/09/22 05:32:22;;;;;;;7.55;2.85;;;;;;;;;;5114310;28;20035;-37
2023/09/22 05:34:51;;;;;;;8.68;2.50;;;;;;;;;;5114366;28;20062;-37
2023/09/22 05:37:19;;;;;;;7.40;2.63;;;;;;;;;;5114270;28;20118;-37
2023/09/22 05:39:46;;;;;;;8.13;2.42;;;;;;;;;;5114367;28;20032;-37
2023/09/22 05:42:14;;;;;;;7.97;2.78;;;;;;;;;;5114295;28;20027;-37
2023/09/22 05:44:41;;;;;;;6.75;2.53;;;;;;;;;;5114024;28;20023;-37
2023/09/22 05:47:08;;;;;;;7.35;2.10;;;;;;;;;;5114263;28;20019;-37
2023/09/22 05:49:35;;;;;;;6.68;2.42;;;;;;;;;;5114279;27;20032;-38
2023/09/22 05:52:03;;;;;;;7.20;2.50;;;;;;;;;;5113986;28;20081;-37
2023/09/22 05:54:30;;;;;;;6.47;2.42;;;;;;;;;;5114383;28;20112;-37
2023/09/22 05:56:58;;;;;;;8.65;2.40;;;;;;;;;;5113861;28;20034;-37
2023/09/22 05:59:28;;;;;;;6.28;2.33;;;;;;;;;;5114005;28;20024;-37
2023/09/22 06:01:57;;;;;;;7.10;2.63;;;;;;;;;;5101827;27;20044;-37
2023/09/22 06:04:24;;;;;;;10.07;2.38;;;;;;;;;;5093543;28;20024;-37
2023/09/22 06:06:53;;;;;;;5.20;1.95;;;;;;;;;;5093240;28;20050;-37
2023/09/22 06:09:21;;;;;;;7.25;2.50;;;;;;;;;;5093547;28;20478;-37
2023/09/22 06:11:49;;;;;;;5.95;2.33;;;;;;;;;;5092782;28;20039;-37
2023/09/22 06:14:16;;;;;;;7.15;2.17;;;;;;;;;;5092159;28;20389;-37
2023/09/22 06:16:43;;;;;;;7.43;1.98;;;;;;;;;;5093176;28;20099;-37
2023/09/22 06:19:13;;;;;;;6.80;2.10;;;;;;;;;;5093231;28;20020;-37
2023/09/22 06:21:40;;;;;;;5.38;2.13;;;;;;;;;;5093192;28;20081;-37
2023/09/22 06:24:07;;;;;;;5.97;2.17;;;;;;;;;;5092872;28;20070;-38
2023/09/22 06:26:34;;;;;;;5.57;2.30;;;;;;;;;;5092982;28;20035;-37
2023/09/22 06:29:02;;;;;;;6.60;2.17;;;;;;;;;;5092929;28;20046;-37
2023/09/22 06:31:29;;;;;;;4.60;1.83;;;;;;;;;;5092873;28;20101;-37
2023/09/22 06:33:56;;;;;;;6.47;2.45;;;;;;;;;;5092752;28;20066;-37
2023/09/22 06:36:23;;;;;;;6.65;1.90;;;;;;;;;;5092769;28;20028;-37
2023/09/22 06:38:50;;;;;;;4.97;2.03;;;;;;;;;;5092899;28;20020;-37
2023/09/22 06:41:18;;;;;;;5.40;2.05;;;;;;;;;;5092739;28;20024;-37
2023/09/22 06:43:46;;;;;;;7.10;2.25;;;;;;;;;;5092978;28;20543;-37
2023/09/22 06:46:14;;;;;;;4.80;1.63;;;;;;;;;;5092384;28;20040;-37
2023/09/22 06:48:41;;;;;;;5.07;1.80;;;;;;;;;;5092702;28;20398;-38
2023/09/22 06:51:13;;;;;;;4.32;1.98;;;;;;;;;;5092530;28;20035;-37
2023/09/22 06:53:40;;;;;;;7.28;2.28;;;;;;;;;;5092478;28;20028;-37
2023/09/22 06:56:11;;;;;;;4.80;1.90;;;;;;;;;;5092322;28;20631;-37
2023/09/22 06:58:40;;;;;;;4.43;1.50;;;;;;;;;;5092357;28;20107;-37
2023/09/22 07:01:14;;;;;;;3.85;1.60;;;;;;;;;;5092192;28;20398;-38
2023/09/22 07:03:42;;;;;;;4.07;1.58;;;;;;;;;;5092404;28;20371;-37
2023/09/22 07:06:10;;;;;;;6.25;1.67;;;;;;;;;;5092203;28;20028;-37
2023/09/22 07:08:40;;;;;;;5.28;2.00;;;;;;;;;;5092313;28;20039;-37
2023/09/22 07:11:11;;;;;;;5.45;1.77;;;;;;;;;;5090695;28;20055;-38
2023/09/22 07:13:43;;;;;;;4.45;1.50;;;;;;;;;;5092190;28;20099;-38
2023/09/22 07:16:11;;;;;;;3.70;1.40;;;;;;;;;;5091734;28;20554;-38
2023/09/22 07:18:38;;;;;;;2.92;1.40;;;;;;;;;;5091958;28;20088;-38
2023/09/22 07:21:08;;;;;;;5.50;1.88;;;;;;;;;;5092153;28;20027;-38
2023/09/22 07:23:35;;;;;;;4.85;1.70;;;;;;;;;;5090982;28;20521;-38
2023/09/22 07:26:09;;;;;;;6.82;1.90;;;;;;;;;;5091614;28;20444;-39
2023/09/22 07:28:36;;;;;;;3.88;1.60;;;;;;;;;;5091902;28;20046;-39
2023/09/22 07:31:12;;;;;;;4.82;1.50;;;;;;;;;;5092024;28;20032;-39
2023/09/22 07:33:40;;;;;;;4.68;1.83;;;;;;;;;;5091702;28;20035;-38
2023/09/22 07:36:07;;;;;;;6.65;1.60;;;;;;;;;;5091828;28;20028;-38
2023/09/22 07:38:35;;;;;;;6.43;1.60;;;;;;;;;;5091918;28;20390;-38
2023/09/22 07:41:02;;;;;;;5.50;1.85;;;;;;;;;;5091922;28;20073;-38
2023/09/22 07:43:29;;;;;;;4.85;1.60;;;;;;;;;;5091977;28;20649;-38
2023/09/22 07:45:57;;;;;;;12.40;2.10;;;;;;;;;;5091491;28;20511;-38
2023/09/22 07:48:24;;;;;;;4.22;1.70;;;;;;;;;;5091797;28;20389;-38
2023/09/22 07:50:52;;;;;;;3.28;1.45;;;;;;;;;;5091754;28;20038;-38
2023/09/22 07:53:20;;;;;;;3.78;1.60;;;;;;;;;;5091554;28;20036;-38
2023/09/22 07:55:48;;;;;;;3.38;1.25;;;;;;;;;;5091616;28;20031;-37
2023/09/22 07:58:15;;;;;;;6.35;1.83;;;;;;;;;;5091544;28;20039;-38
2023/09/22 08:00:46;;;;;;;5.18;1.50;;;;;;;;;;5091685;28;20561;-38
2023/09/22 08:03:14;;;;;;;5.53;1.92;;;;;;;;;;5091532;28;20106;-38
2023/09/22 08:05:41;;;;;;;4.63;1.50;;;;;;;;;;5091343;28;20386;-39
2023/09/22 08:08:10;;;;;;;4.15;1.63;;;;;;;;;;5091546;28;20032;-39
2023/09/22 08:10:40;;;;;;;4.32;1.60;;;;;;;;;;5091586;28;20060;-39
2023/09/22 08:13:10;;;;;;;4.00;1.58;;;;;;;;;;5091547;28;20063;-39
2023/09/22 08:15:38;;;;;;;4.47;1.50;;;;;;;;;;5091478;28;20489;-39
2023/09/22 08:18:06;;;;;;;3.03;1.33;;;;;;;;;;5091500;28;20028;-42
2023/09/22 08:20:34;;;;;;;3.30;1.52;;;;;;;;;;5091383;28;20455;-39
2023/09/22 08:23:01;;;;;;;3.38;1.40;;;;;;;;;;5091096;28;20031;-39
2023/09/22 08:25:28;;;;;;;3.97;1.70;;;;;;;;;;5091145;28;20032;-40
2023/09/22 08:27:56;;;;;;;4.38;1.80;;;;;;;;;;5091443;28;20032;-39
2023/09/22 08:30:24;;;;;;;3.25;1.45;;;;;;;;;;5091180;28;20100;-39
2023/09/22 08:32:51;;;;;;;4.65;1.60;;;;;;;;;;5091210;28;20047;-38
2023/09/22 08:35:18;;;;;;;4.07;1.65;;;;;;;;;;5093170;28;20047;-38
2023/09/22 08:37:46;;;;;;;4.55;1.80;;;;;;;;;;5095358;28;20399;-38
2023/09/22 08:40:17;;;;;;;5.53;1.88;;;;;;;;;;5095197;28;20497;-38
2023/09/22 08:42:51;;;;;;;6.97;1.70;;;;;;;;;;5095121;28;20505;-38
2023/09/22 08:45:18;;;;;;;4.63;1.50;;;;;;;;;;5094684;28;20068;-38
2023/09/22 08:47:46;;;;;;;3.38;1.35;;;;;;;;;;5094953;28;20032;-38
2023/09/22 08:50:13;;;;;;;3.05;1.45;;;;;;;;;;5095082;28;20020;-38
2023/09/22 08:52:41;;;;;;;5.15;1.67;;;;;;;;;;5094997;28;20073;-38
2023/09/22 08:55:12;;;;;;;4.82;1.30;;;;;;;;;;5094898;28;20031;-38
2023/09/22 08:57:44;;;;;;;3.17;1.23;;;;;;;;;;5094713;28;20036;-38
2023/09/22 09:00:18;;;;;;;5.90;1.55;;;;;;;;;;5094933;28;20034;-38
2023/09/22 09:02:45;;;;;;;3.67;1.38;;;;;;;;;;5094681;28;20495;-38
2023/09/22 09:05:24;;;;;;;5.18;1.70;;;;;;;;;;5094627;28;20405;-38
2023/09/22 09:07:52;;;;;;;3.83;1.48;;;;;;;;;;5100477;28;20016;-37
2023/09/22 09:10:29;;;;;;;4.28;1.38;;;;;;;;;;5112034;28;20461;-39
2023/09/22 09:13:00;;;;;;;4.38;1.45;;;;;;;;;;5114417;28;20039;-38
2023/09/22 09:15:28;;;;;;;5.50;1.67;;;;;;;;;;5099370;28;20036;-38
2023/09/22 09:18:05;;;;;;;6.82;2.00;;;;;;;;;;5094420;28;20426;-38
2023/09/22 09:20:33;;;;;;;5.85;1.83;;;;;;;;;;5094321;28;20036;-38
2023/09/22 09:23:00;;;;;;;4.25;1.40;;;;;;;;;;5098732;28;20020;-39
2023/09/22 09:25:29;;;;;;;11.68;2.67;;;;;;;;;;5100708;28;20043;-39
2023/09/22 09:28:03;;;;;;;9.10;2.28;;;;;;;;;;5099887;28;20032;-38
2023/09/22 09:30:31;;;;;;;14.30;2.22;;;;;;;;;;5101733;28;20557;-38
2023/09/22 09:33:12;;;;;;;13.05;2.47;;;;;;;;;;5102848;28;20028;-40
2023/09/22 09:35:41;;;;;;;10.50;2.35;;;;;;;;;;5103257;28;20043;-39
2023/09/22 09:38:08;;;;;;;10.05;2.05;;;;;;;;;;5096672;28;20075;-40
2023/09/22 09:40:39;;;;;;;15.35;2.40;;;;;;;;;;5094073;28;20070;-40
2023/09/22 09:43:08;;;;;;;8.40;2.33;;;;;;;;;;5093871;28;20032;-38
2023/09/22 09:45:36;;;;;;;19.33;2.40;;;;;;;;;;5092678;28;20121;-38
2023/09/22 09:48:05;;;;;;;20.02;2.80;;;;;;;;;;5093351;28;20406;-38
2023/09/22 09:50:35;;;;;;;19.77;2.55;;;;;;;;;;5093971;28;20028;-38
2023/09/22 09:53:06;;;;;;;11.35;2.13;;;;;;;;;;5093712;28;20029;-38
2023/09/22 09:55:36;;;;;;;13.85;2.42;;;;;;;;;;5093794;28;20516;-38
2023/09/22 09:58:04;;;;;;;12.45;2.60;;;;;;;;;;5093795;28;20111;-38
2023/09/22 10:00:35;;;;;;;13.52;2.28;;;;;;;;;;5093974;28;20093;-38
2023/09/22 10:03:02;;;;;;;11.15;2.25;;;;;;;;;;5093577;28;20539;-38
2023/09/22 10:05:32;;;;;;;10.55;2.30;;;;;;;;;;5093186;28;20039;-38
2023/09/22 10:08:00;;;;;;;10.15;2.33;;;;;;;;;;5093235;28;20058;-39
2023/09/22 10:10:28;;;;;;;14.13;2.95;;;;;;;;;;5101409;28;20043;-39
2023/09/22 10:12:55;;;;;;;19.45;2.85;;;;;;;;;;5102558;28;20355;-39
2023/09/22 10:15:40;;;;;;;25.15;3.92;;;;;;;;;;5103779;28;20023;-40
2023/09/22 10:18:07;;;;;;;29.73;4.00;;;;;;;;;;5102078;28;20062;-38
2023/09/22 10:20:47;;;;;;;31.17;3.72;;;;;;;;;;5101935;28;20032;-40
2023/09/22 10:23:17;;;;;;;28.90;4.50;;;;;;;;;;5103104;28;20047;-40
2023/09/22 10:26:04;;;;;;;34.88;4.43;;;;;;;;;;5102310;28;20475;-39
2023/09/22 10:28:31;;;;;;;41.35;4.63;;;;;;;;;;5102140;28;20035;-38
2023/09/22 10:30:58;;;;;;;28.77;4.05;;;;;;;;;;5102124;28;20020;-38
2023/09/22 10:33:25;;;;;;;25.52;4.20;;;;;;;;;;5103654;28;20084;-40
2023/09/22 10:35:53;;;;;;;24.25;3.80;;;;;;;;;;5101532;28;20493;-40
2023/09/22 10:38:21;;;;;;;27.02;3.80;;;;;;;;;;5102050;28;20481;-41
2023/09/22 10:41:04;;;;;;;20.88;3.63;;;;;;;;;;5103803;28;20028;-38
2023/09/22 10:43:36;;;;;;;20.75;2.95;;;;;;;;;;5102994;28;20070;-38
2023/09/22 10:46:03;;;;;;;15.00;3.47;;;;;;;;;;5103401;28;20043;-39
2023/09/22 10:48:37;;;;;;;28.45;3.40;;;;;;;;;;5101837;28;20389;-38
2023/09/22 10:51:06;;;;;;;32.40;4.20;;;;;;;;;;5102565;28;20460;-38
2023/09/22 10:53:38;;;;;;;20.27;3.78;;;;;;;;;;5103003;28;20032;-41
2023/09/22 10:56:05;;;;;;;26.38;3.85;;;;;;;;;;5102021;28;20466;-40
2023/09/22 10:58:32;;;;;;;20.83;3.85;;;;;;;;;;5101292;28;20031;-37
2023/09/22 11:01:01;;;;;;;15.48;3.20;;;;;;;;;;5103143;28;20129;-38
2023/09/22 11:03:29;;;;;;;16.27;3.10;;;;;;;;;;5101968;28;20093;-39
2023/09/22 11:06:00;;;;;;;22.77;3.03;;;;;;;;;;5099671;27;20047;-38
2023/09/22 11:08:27;;;;;;;20.63;3.60;;;;;;;;;;5101791;28;20043;-39
2023/09/22 11:10:56;;;;;;;24.48;4.20;;;;;;;;;;5096850;28;20111;-39
2023/09/22 11:13:23;;;;;;;35.67;4.40;;;;;;;;;;5094970;28;20035;-40
2023/09/22 11:15:57;;;;;;;464.45;19.92;;;;;;;;;;5105765;28;20039;-39
2023/09/22 11:18:26;;;;;;;59.92;5.95;;;;;;;;;;5090066;28;20040;-56
2023/09/22 11:20:57;;;;;;;49.95;5.30;;;;;;;;;;5106815;28;20118;-56
2023/09/22 11:23:25;;;;;;;113.82;12.02;;;;;;;;;;5108914;28;20039;-48
2023/09/22 11:26:00;;;;;;;66.88;8.52;;;;;;;;;;5101282;28;20448;-47
2023/09/22 11:28:28;;;;;;;89.68;9.52;;;;;;;;;;5105966;28;20027;-49
2023/09/22 11:31:06;;;;;;;82.10;9.52;;;;;;;;;;5101239;28;20044;-45
2023/09/22 11:33:33;;;;;;;85.95;9.57;;;;;;;;;;5099068;28;20023;-48
2023/09/22 11:36:00;;;;;;;85.47;10.10;;;;;;;;;;5098989;28;20089;-40
2023/09/22 11:38:31;;;;;;;67.32;8.98;;;;;;;;;;5108701;28;20039;-43
2023/09/22 11:41:16;;;;;;;57.72;8.15;;;;;;;;;;5111222;28;20468;-42
2023/09/22 11:43:44;;;;;;;66.45;8.27;;;;;;;;;;5110890;28;20108;-42
2023/09/22 11:46:14;;;;;;;80.82;9.93;;;;;;;;;;5104217;28;20393;-45
2023/09/22 11:48:56;;;;;;;58.33;8.05;;;;;;;;;;5111539;28;20046;-42
2023/09/22 11:51:23;;;;;;;53.40;7.13;;;;;;;;;;5111885;28;20389;-42
2023/09/22 11:53:50;;;;;;;62.60;7.57;;;;;;;;;;5109068;28;20099;-40
2023/09/22 11:56:17;;;;;;;51.45;7.47;;;;;;;;;;5096964;28;20465;-42
2023/09/22 11:58:44;;;;;;;67.38;8.43;;;;;;;;;;5099463;28;20546;-38
2023/09/22 12:01:11;;;;;;;75.82;8.45;;;;;;;;;;5093514;28;20028;-40
2023/09/22 12:03:38;;;;;;;69.95;7.00;;;;;;;;;;5099436;28;20052;-45
2023/09/22 12:06:05;;;;;;;42.33;6.38;;;;;;;;;;5096264;28;20040;-41
2023/09/22 12:08:33;;;;;;;36.78;4.97;;;;;;;;;;5111652;28;20031;-41
2023/09/22 12:11:00;;;;;;;45.88;6.80;;;;;;;;;;5108764;28;20470;-40
2023/09/22 12:13:27;;;;;;;63.38;7.13;;;;;;;;;;5107006;28;20039;-41
2023/09/22 12:15:54;;;;;;;45.30;6.75;;;;;;;;;;5104207;28;20525;-40
2023/09/22 12:18:22;;;;;;;39.47;6.07;;;;;;;;;;5098684;28;20032;-39
2023/09/22 12:20:48;;;;;;;35.28;6.38;;;;;;;;;;5110995;28;20028;-41
2023/09/22 12:23:16;;;;;;;33.08;5.53;;;;;;;;;;5112419;28;20186;-39
2023/09/22 12:25:43;;;;;;;52.70;5.82;;;;;;;;;;5106491;28;20051;-39
2023/09/22 12:28:10;;;;;;;40.70;6.13;;;;;;;;;;5115280;27;20039;-43
2023/09/22 12:30:37;;;;;;;29.63;5.03;;;;;;;;;;5109804;28;20028;-41
2023/09/22 12:33:04;;;;;;;24.48;4.75;;;;;;;;;;5115086;28;20073;-40
2023/09/22 12:35:31;;;;;;;22.75;4.75;;;;;;;;;;5114158;28;20035;-42
2023/09/22 12:37:58;;;;;;;19.25;4.43;;;;;;;;;;5115124;28;20389;-45
2023/09/22 12:40:26;;;;;;;23.70;4.22;;;;;;;;;;5106010;28;20044;-40
2023/09/22 12:42:53;;;;;;;24.02;4.90;;;;;;;;;;5110293;28;20028;-42
2023/09/22 12:45:20;;;;;;;24.08;4.75;;;;;;;;;;5110282;28;20028;-44
2023/09/22 12:47:47;;;;;;;19.95;4.50;;;;;;;;;;5114858;28;20439;-41
2023/09/22 12:50:14;;;;;;;19.00;4.05;;;;;;;;;;5105870;28;20031;-43
2023/09/22 12:52:42;;;;;;;21.30;4.20;;;;;;;;;;5109845;28;20359;-41
2023/09/22 12:55:10;;;;;;;21.95;3.47;;;;;;;;;;5114757;28;20057;-43
2023/09/22 12:57:37;;;;;;;17.88;3.78;;;;;;;;;;5114537;28;20042;-43
2023/09/22 13:00:06;;;;;;;17.95;3.85;;;;;;;;;;5114715;28;20027;-44
2023/09/22 13:02:34;;;;;;;22.45;4.22;;;;;;;;;;5114415;28;20038;-44
2023/09/22 13:05:04;;;;;;;30.92;3.83;;;;;;;;;;5113919;28;20028;-44
2023/09/22 13:07:31;;;;;;;19.92;3.95;;;;;;;;;;5114320;28;20039;-45
2023/09/22 13:09:59;;;;;;;17.00;3.38;;;;;;;;;;5114493;28;20035;-43
2023/09/22 13:12:26;;;;;;;17.23;3.15;;;;;;;;;;5113930;28;20042;-46
2023/09/22 13:14:54;;;;;;;21.83;3.85;;;;;;;;;;5114403;28;20104;-43
2023/09/22 13:17:21;;;;;;;20.00;4.00;;;;;;;;;;5114059;27;20045;-40
2023/09/22 13:19:48;;;;;;;30.95;3.72;;;;;;;;;;5114353;27;20050;-43
2023/09/22 13:22:15;;;;;;;30.50;4.57;;;;;;;;;;5112936;28;20031;-44
2023/09/22 13:24:45;;;;;;;25.92;4.38;;;;;;;;;;5113754;28;20050;-43
2023/09/22 13:27:13;;;;;;;28.67;4.25;;;;;;;;;;5113655;28;20035;-43
2023/09/22 13:29:40;;;;;;;26.67;4.40;;;;;;;;;;5104522;28;20067;-40
2023/09/22 13:32:09;;;;;;;29.17;4.40;;;;;;;;;;5112476;28;20030;-41
2023/09/22 13:34:36;;;;;;;28.08;3.72;;;;;;;;;;5113930;28;20087;-44
2023/09/22 13:37:04;;;;;;;25.58;3.78;;;;;;;;;;5111717;28;20393;-42
2023/09/22 13:39:31;;;;;;;44.83;4.55;;;;;;;;;;5113881;28;20100;-43
2023/09/22 13:41:59;;;;;;;38.92;4.05;;;;;;;;;;5113722;28;20092;-42
2023/09/22 13:44:26;;;;;;;20.13;3.33;;;;;;;;;;5109600;28;20098;-41
2023/09/22 13:46:53;;;;;;;29.45;3.58;;;;;;;;;;5105106;28;20040;-44
2023/09/22 13:49:21;;;;;;;21.98;3.65;;;;;;;;;;5102754;28;20051;-41
2023/09/22 13:51:49;;;;;;;18.75;3.88;;;;;;;;;;5111460;28;20036;-41
2023/09/22 13:54:16;;;;;;;21.65;4.05;;;;;;;;;;5102724;28;20028;-41
2023/09/22 13:56:43;;;;;;;18.50;4.10;;;;;;;;;;5102291;27;20484;-43
2023/09/22 13:59:11;;;;;;;15.23;3.20;;;;;;;;;;5103898;28;20102;-43
2023/09/22 14:01:38;;;;;;;17.55;3.40;;;;;;;;;;5103249;28;20028;-43
2023/09/22 14:04:05;;;;;;;20.02;3.50;;;;;;;;;;5101724;28;20039;-43
2023/09/22 14:06:32;;;;;;;19.38;2.85;;;;;;;;;;5103549;28;20032;-41
2023/09/22 14:08:59;;;;;;;26.52;4.03;;;;;;;;;;5103107;28;20024;-43
2023/09/22 14:11:26;;;;;;;19.25;3.65;;;;;;;;;;5101588;28;20043;-41
2023/09/22 14:13:53;;;;;;;17.60;3.55;;;;;;;;;;5098747;28;20020;-41
2023/09/22 14:16:20;;;;;;;20.20;3.15;;;;;;;;;;5104074;28;20425;-43
2023/09/22 14:18:48;;;;;;;16.13;3.25;;;;;;;;;;5102052;28;20070;-41
2023/09/22 14:21:15;;;;;;;17.40;3.25;;;;;;;;;;5103532;28;20028;-43
2023/09/22 14:23:42;;;;;;;12.68;2.58;;;;;;;;;;5102116;28;20043;-44
2023/09/22 14:26:12;;;;;;;15.57;3.78;;;;;;;;;;5101598;28;20051;-43
2023/09/22 14:28:39;;;;;;;21.05;4.07;;;;;;;;;;5101797;28;20112;-46
2023/09/22 14:31:06;;;;;;;11.52;3.40;;;;;;;;;;5102205;28;20027;-43
2023/09/22 14:33:33;;;;;;;23.10;3.72;;;;;;;;;;5103078;28;20525;-45
2023/09/22 14:36:06;;;;;;;15.00;3.00;;;;;;;;;;5101809;28;20478;-44
2023/09/22 14:38:34;;;;;;;11.32;3.17;;;;;;;;;;5101220;28;20059;-43
2023/09/22 14:41:01;;;;;;;22.98;3.90;;;;;;;;;;5101050;28;20054;-43